createdAt,value
2022-11-05T00:00:29.966Z,13.87
2022-11-05T00:03:16.085Z,13.88
2022-11-05T00:06:02.946Z,13.85
2022-11-05T00:08:50.250Z,13.84
2022-11-05T00:11:18.686Z,13.81
2022-11-05T00:14:04.843Z,13.79
2022-11-05T00:16:45.299Z,13.78
2022-11-05T00:19:14.958Z,13.75
2022-11-05T00:22:00.691Z,13.78
2022-11-05T00:24:47.865Z,13.79
2022-11-05T00:27:16.068Z,13.82
2022-11-05T00:29:44.691Z,13.90
2022-11-05T00:32:13.101Z,13.94
2022-11-05T00:34:41.322Z,13.96
2022-11-05T00:37:09.706Z,13.98
2022-11-05T00:39:39.302Z,13.98
2022-11-05T00:42:24.994Z,14.00
2022-11-05T00:45:02.551Z,14.00
2022-11-05T00:47:50.231Z,13.94
2022-11-05T00:50:19.334Z,13.94
2022-11-05T00:52:56.921Z,13.96
2022-11-05T00:55:33.423Z,13.95
2022-11-05T00:58:03.339Z,13.94
2022-11-05T01:00:35.003Z,13.94
2022-11-05T01:03:05.701Z,13.93
2022-11-05T01:05:35.578Z,13.95
2022-11-05T01:08:03.891Z,13.98
2022-11-05T01:10:33.570Z,13.96
2022-11-05T01:13:01.997Z,13.93
2022-11-05T01:15:30.265Z,13.95
2022-11-05T01:17:58.701Z,13.88
2022-11-05T01:20:27.978Z,13.91
2022-11-05T01:22:56.375Z,14.06
2022-11-05T01:25:25.593Z,14.11
2022-11-05T01:27:55.515Z,14.15
2022-11-05T01:30:23.752Z,13.95
2022-11-05T01:32:51.934Z,14.26
2022-11-05T01:35:20.601Z,14.23
2022-11-05T01:37:49.001Z,14.32
2022-11-05T01:40:19.798Z,14.29
2022-11-05T01:42:48.722Z,14.36
2022-11-05T01:45:21.493Z,14.29
2022-11-05T01:48:02.345Z,14.33
2022-11-05T01:50:48.380Z,14.32
2022-11-05T01:53:24.042Z,14.32
2022-11-05T01:55:57.864Z,14.40
2022-11-05T01:58:33.099Z,14.44
2022-11-05T02:01:02.811Z,14.37
2022-11-05T02:03:32.020Z,14.47
2022-11-05T02:06:03.222Z,14.37
2022-11-05T02:08:43.615Z,14.45
2022-11-05T02:11:14.537Z,14.31
2022-11-05T02:13:43.022Z,14.45
2022-11-05T02:16:19.288Z,14.34
2022-11-05T02:18:59.340Z,14.50
2022-11-05T02:22:07.948Z,14.44
2022-11-05T02:24:57.965Z,14.54
2022-11-05T02:27:59.579Z,14.51
2022-11-05T02:30:41.778Z,14.53
2022-11-05T02:33:42.903Z,14.48
2022-11-05T02:36:25.416Z,14.50
2022-11-05T02:39:07.830Z,14.47
2022-11-05T02:41:44.369Z,14.32
2022-11-05T02:44:23.797Z,14.34
2022-11-05T02:46:59.555Z,14.42
2022-11-05T02:49:40.204Z,14.22
2022-11-05T02:52:16.590Z,14.31
2022-11-05T02:54:51.565Z,14.29
2022-11-05T02:57:22.230Z,14.36
2022-11-05T03:00:00.820Z,14.36
2022-11-05T03:02:30.741Z,14.22
2022-11-05T03:04:59.918Z,14.23
2022-11-05T03:07:43.641Z,14.19
2022-11-05T03:10:38.862Z,14.13
2022-11-05T03:13:15.817Z,14.12
2022-11-05T03:15:52.417Z,14.26
2022-11-05T03:18:28.562Z,14.17
2022-11-05T03:21:02.682Z,14.27
2022-11-05T03:23:37.377Z,14.12
2022-11-05T03:26:11.056Z,14.16
2022-11-05T03:28:44.096Z,14.30
2022-11-05T03:31:15.324Z,14.28
2022-11-05T03:33:46.617Z,14.25
2022-11-05T03:36:20.800Z,14.10
2022-11-05T03:38:54.392Z,14.15
2022-11-05T03:41:25.967Z,14.27
2022-11-05T03:44:00.312Z,14.14
2022-11-05T03:46:33.692Z,14.15
2022-11-05T03:49:05.483Z,14.10
2022-11-05T03:51:44.167Z,14.12
2022-11-05T03:54:12.607Z,14.00
2022-11-05T03:56:48.202Z,14.08
2022-11-05T03:59:18.111Z,14.05
2022-11-05T04:01:46.784Z,14.07
2022-11-05T04:04:16.803Z,14.16
2022-11-05T04:07:02.489Z,14.16
2022-11-05T04:09:48.261Z,14.20
2022-11-05T04:12:34.114Z,14.14
2022-11-05T04:15:02.856Z,14.10
2022-11-05T04:17:30.204Z,14.20
2022-11-05T04:20:17.231Z,14.19
2022-11-05T04:23:03.214Z,14.15
2022-11-05T04:25:31.455Z,14.18
2022-11-05T04:28:01.226Z,14.16
2022-11-05T04:30:28.488Z,14.07
2022-11-05T04:32:58.614Z,14.08
2022-11-05T04:35:30.328Z,14.04
2022-11-05T04:37:58.489Z,13.98
2022-11-05T04:40:26.998Z,14.01
2022-11-05T04:42:56.229Z,13.92
2022-11-05T04:45:25.518Z,13.89
2022-11-05T04:47:54.317Z,13.86
2022-11-05T04:50:23.192Z,13.86
2022-11-05T04:52:53.044Z,13.76
2022-11-05T04:55:22.043Z,13.64
2022-11-05T04:57:50.960Z,13.59
2022-11-05T05:00:20.747Z,13.59
2022-11-05T05:02:50.048Z,13.60
2022-11-05T05:05:18.639Z,13.59
2022-11-05T05:07:46.820Z,13.56
2022-11-05T05:10:16.670Z,13.50
2022-11-05T05:12:44.898Z,13.50
2022-11-05T05:15:13.296Z,13.45
2022-11-05T05:17:41.757Z,13.40
2022-11-05T05:20:27.937Z,13.33
2022-11-05T05:22:56.551Z,13.28
2022-11-05T05:25:26.164Z,13.21
2022-11-05T05:27:57.304Z,13.13
2022-11-05T05:30:26.332Z,13.14
2022-11-05T05:32:54.612Z,13.03
2022-11-05T05:35:22.886Z,12.97
2022-11-05T05:37:55.994Z,12.92
2022-11-05T05:40:24.171Z,12.88
2022-11-05T05:42:55.997Z,12.83
2022-11-05T05:45:24.186Z,12.74
2022-11-05T05:47:52.636Z,12.68
2022-11-05T05:50:20.943Z,12.63
2022-11-05T05:52:53.319Z,12.56
2022-11-05T05:55:21.883Z,12.50
2022-11-05T05:57:49.996Z,12.44
2022-11-05T06:00:19.745Z,12.39
2022-11-05T06:02:48.399Z,12.33
2022-11-05T06:05:16.902Z,12.29
2022-11-05T06:07:45.325Z,12.22
2022-11-05T06:10:14.534Z,12.21
2022-11-05T06:12:42.783Z,12.17
2022-11-05T06:15:11.669Z,12.15
2022-11-05T06:17:45.360Z,12.12
2022-11-05T06:20:14.383Z,12.11
2022-11-05T06:23:02.110Z,12.04
2022-11-05T06:25:31.017Z,12.02
2022-11-05T06:28:06.992Z,11.98
2022-11-05T06:30:35.482Z,11.96
2022-11-05T06:33:06.481Z,11.94
2022-11-05T06:35:34.690Z,11.90
2022-11-05T06:38:03.433Z,11.89
2022-11-05T06:40:31.826Z,11.88
2022-11-05T06:43:00.027Z,11.87
2022-11-05T06:45:28.592Z,11.85
2022-11-05T06:47:57.996Z,11.85
2022-11-05T06:50:29.143Z,11.85
2022-11-05T06:52:59.398Z,11.83
2022-11-05T06:55:29.406Z,11.84
2022-11-05T06:57:58.509Z,11.85
2022-11-05T07:00:27.116Z,11.88
2022-11-05T07:02:56.982Z,11.87
2022-11-05T07:05:27.041Z,11.89
2022-11-05T07:07:55.183Z,11.94
2022-11-05T07:10:23.434Z,11.97
2022-11-05T07:12:51.881Z,12.00
2022-11-05T07:15:20.138Z,12.03
2022-11-05T07:17:48.852Z,12.06
2022-11-05T07:20:17.713Z,12.10
2022-11-05T07:22:47.384Z,12.17
2022-11-05T07:25:15.628Z,12.26
2022-11-05T07:27:44.724Z,12.33
2022-11-05T07:30:13.521Z,12.44
2022-11-05T07:32:42.428Z,12.51
2022-11-05T07:35:11.276Z,12.56
2022-11-05T07:37:44.537Z,12.64
2022-11-05T07:40:16.192Z,12.72
2022-11-05T07:42:45.266Z,12.81
2022-11-05T07:45:14.498Z,12.88
2022-11-05T07:47:47.237Z,12.98
2022-11-05T07:50:16.764Z,13.06
2022-11-05T07:52:45.493Z,13.17
2022-11-05T07:55:15.211Z,13.23
2022-11-05T07:57:44.120Z,13.22
2022-11-05T08:00:15.088Z,13.28
2022-11-05T08:02:44.153Z,13.42
2022-11-05T08:05:12.487Z,13.55
2022-11-05T08:07:40.563Z,13.55
2022-11-05T08:10:09.580Z,13.54
2022-11-05T08:12:39.278Z,13.57
2022-11-05T08:15:08.333Z,13.69
2022-11-05T08:17:36.770Z,13.80
2022-11-05T08:20:05.674Z,13.88
2022-11-05T08:22:33.982Z,13.82
2022-11-05T08:25:06.651Z,13.95
2022-11-05T08:27:35.144Z,14.00
2022-11-05T08:30:05.890Z,14.07
2022-11-05T08:32:34.424Z,14.01
2022-11-05T08:35:02.677Z,14.21
2022-11-05T08:37:31.390Z,14.35
2022-11-05T08:40:00.807Z,14.33
2022-11-05T08:42:28.982Z,14.51
2022-11-05T08:44:57.486Z,14.61
2022-11-05T08:47:27.100Z,14.79
2022-11-05T08:49:55.287Z,14.92
2022-11-05T08:52:23.837Z,14.99
2022-11-05T08:54:52.123Z,15.07
2022-11-05T08:57:20.442Z,15.17
2022-11-05T08:59:48.987Z,15.25
2022-11-05T09:02:17.680Z,15.36
2022-11-05T09:04:47.468Z,15.32
2022-11-05T09:07:15.959Z,15.40
2022-11-05T09:09:44.167Z,15.59
2022-11-05T09:12:13.225Z,15.68
2022-11-05T09:14:41.787Z,15.78
2022-11-05T09:17:17.482Z,15.90
2022-11-05T09:19:47.473Z,16.07
2022-11-05T09:22:16.065Z,16.03
2022-11-05T09:24:44.705Z,16.15
2022-11-05T09:27:14.664Z,16.20
2022-11-05T09:29:43.251Z,16.35
2022-11-05T09:32:12.083Z,16.36
2022-11-05T09:34:41.718Z,16.55
2022-11-05T09:37:11.227Z,16.66
2022-11-05T09:39:39.323Z,16.72
2022-11-05T09:42:10.549Z,16.81
2022-11-05T09:44:43.252Z,16.86
2022-11-05T09:47:16.741Z,16.97
2022-11-05T09:49:51.199Z,17.04
2022-11-05T09:52:23.775Z,17.21
2022-11-05T09:54:54.314Z,17.41
2022-11-05T09:57:27.207Z,17.43
2022-11-05T09:59:58.418Z,17.56
2022-11-05T10:02:30.520Z,17.43
2022-11-05T10:05:09.408Z,17.38
2022-11-05T10:07:46.414Z,17.51
2022-11-05T10:10:28.077Z,17.63
2022-11-05T10:13:00.387Z,17.62
2022-11-05T10:15:32.358Z,17.62
2022-11-05T10:18:07.140Z,17.78
2022-11-05T10:20:37.918Z,17.64
2022-11-05T10:23:12.453Z,17.67
2022-11-05T10:25:44.873Z,17.77
2022-11-05T10:28:17.871Z,17.85
2022-11-05T10:30:49.538Z,17.93
2022-11-05T10:33:28.594Z,17.91
2022-11-05T10:36:03.497Z,18.20
2022-11-05T10:38:33.654Z,18.38
2022-11-05T10:41:18.898Z,18.73
2022-11-05T10:43:51.016Z,19.06
2022-11-05T10:46:32.555Z,19.27
2022-11-05T10:49:15.165Z,19.41
2022-11-05T10:51:44.601Z,19.38
2022-11-05T10:54:19.278Z,19.55
2022-11-05T10:56:47.964Z,19.48
2022-11-05T10:59:24.431Z,19.15
2022-11-05T11:02:04.636Z,19.14
2022-11-05T11:04:37.663Z,18.72
2022-11-05T11:07:20.598Z,18.64
2022-11-05T11:09:51.354Z,18.42
2022-11-05T11:12:25.803Z,18.26
2022-11-05T11:15:05.208Z,18.12
2022-11-05T11:17:33.804Z,17.87
2022-11-05T11:20:22.566Z,17.73
2022-11-05T11:23:03.232Z,17.59
2022-11-05T11:25:40.553Z,17.44
2022-11-05T11:28:19.029Z,17.47
2022-11-05T11:30:56.172Z,17.45
2022-11-05T11:33:28.782Z,17.39
2022-11-05T11:35:57.865Z,17.43
2022-11-05T11:38:30.258Z,17.34
2022-11-05T11:41:10.205Z,17.19
2022-11-05T11:43:42.322Z,17.11
2022-11-05T11:46:16.577Z,17.06
2022-11-05T11:48:48.344Z,17.01
2022-11-05T11:51:21.146Z,16.99
2022-11-05T11:53:50.827Z,16.89
2022-11-05T11:56:21.967Z,16.89
2022-11-05T11:58:52.064Z,16.86
2022-11-05T12:01:52.140Z,16.88
2022-11-05T12:04:38.589Z,16.86
2022-11-05T12:07:18.143Z,16.82
2022-11-05T12:09:59.316Z,16.70
2022-11-05T12:12:38.565Z,16.74
2022-11-05T12:15:26.187Z,16.71
2022-11-05T12:18:14.323Z,16.67
2022-11-05T12:21:05.454Z,16.72
2022-11-05T12:23:58.308Z,16.84
2022-11-05T12:26:39.187Z,17.21
2022-11-05T12:29:36.163Z,17.43
2022-11-05T12:32:28.072Z,17.70
2022-11-05T12:35:04.879Z,17.83
2022-11-05T12:37:38.547Z,17.66
2022-11-05T12:40:30.365Z,17.76
2022-11-05T12:43:12.073Z,17.93
2022-11-05T12:45:48.233Z,18.00
2022-11-05T12:48:35.760Z,17.92
2022-11-05T12:51:17.850Z,17.77
2022-11-05T12:53:57.500Z,17.77
2022-11-05T12:56:32.443Z,17.89
2022-11-05T12:59:05.448Z,17.79
2022-11-05T13:01:39.450Z,17.88
2022-11-05T13:04:17.768Z,17.98
2022-11-05T13:06:52.480Z,18.07
2022-11-05T13:09:26.459Z,18.27
2022-11-05T13:11:57.707Z,18.57
2022-11-05T13:14:33.688Z,18.85
2022-11-05T13:17:08.182Z,19.11
2022-11-05T13:19:41.318Z,19.16
2022-11-05T13:22:18.568Z,19.25
2022-11-05T13:24:54.009Z,19.53
2022-11-05T13:27:46.162Z,19.50
2022-11-05T13:30:18.412Z,19.83
2022-11-05T13:32:54.172Z,19.87
2022-11-05T13:35:27.275Z,19.86
2022-11-05T13:38:22.081Z,20.00
2022-11-05T13:41:06.818Z,20.02
2022-11-05T13:43:49.122Z,19.94
2022-11-05T13:46:31.123Z,20.11
2022-11-05T13:49:39.505Z,20.11
2022-11-05T13:52:33.961Z,20.26
2022-11-05T13:55:38.583Z,20.10
2022-11-05T13:58:45.239Z,19.89
2022-11-05T14:01:23.002Z,19.98
2022-11-05T14:03:54.226Z,20.00
2022-11-05T14:06:27.883Z,19.82
2022-11-05T14:09:00.079Z,19.78
2022-11-05T14:11:31.451Z,19.72
2022-11-05T14:14:03.950Z,19.64
2022-11-05T14:16:49.226Z,19.66
2022-11-05T14:19:52.780Z,19.32
2022-11-05T14:22:39.266Z,19.31
2022-11-05T14:25:55.046Z,19.09
2022-11-05T14:28:39.927Z,19.00
2022-11-05T14:31:41.030Z,18.80
2022-11-05T14:34:22.379Z,18.65
2022-11-05T14:37:18.257Z,18.61
2022-11-05T14:39:47.989Z,18.45
2022-11-05T14:42:19.783Z,18.26
2022-11-05T14:44:59.300Z,18.15
2022-11-05T14:47:31.000Z,18.02
2022-11-05T14:50:03.442Z,18.02
2022-11-05T14:52:33.365Z,17.95
2022-11-05T14:55:04.427Z,17.94
2022-11-05T14:58:18.190Z,17.81
2022-11-05T15:00:50.528Z,17.74
2022-11-05T15:04:01.913Z,17.59
2022-11-05T15:06:33.980Z,17.49
2022-11-05T15:09:14.598Z,17.39
2022-11-05T15:11:52.184Z,17.33
2022-11-05T15:14:29.768Z,17.21
2022-11-05T15:17:03.584Z,17.04
2022-11-05T15:19:37.034Z,16.90
2022-11-05T15:22:12.050Z,16.81
2022-11-05T15:24:43.589Z,16.71
2022-11-05T15:27:21.910Z,16.60
2022-11-05T15:29:50.693Z,16.52
2022-11-05T15:32:24.023Z,16.41
2022-11-05T15:34:54.016Z,16.31
2022-11-05T15:37:24.784Z,16.19
2022-11-05T15:39:55.197Z,16.06
2022-11-05T15:42:26.559Z,15.95
2022-11-05T15:44:56.951Z,15.82
2022-11-05T15:47:26.546Z,15.72
2022-11-05T15:49:57.607Z,15.64
2022-11-05T15:52:33.470Z,15.53
2022-11-05T15:55:20.286Z,15.44
2022-11-05T15:57:51.858Z,15.33
2022-11-05T16:00:22.698Z,15.15
2022-11-05T16:02:55.675Z,15.00
2022-11-05T16:05:27.319Z,14.87
2022-11-05T16:07:59.799Z,14.76
2022-11-05T16:10:31.246Z,14.60
2022-11-05T16:13:42.029Z,14.48
2022-11-05T16:16:27.298Z,14.37
2022-11-05T16:18:56.193Z,14.22
2022-11-05T16:21:24.737Z,14.10
2022-11-05T16:23:58.091Z,14.04
2022-11-05T16:29:29.966Z,13.86
2022-11-05T16:32:01.787Z,13.77
2022-11-05T16:34:35.274Z,13.68
2022-11-05T16:37:05.120Z,13.60
2022-11-05T16:39:33.988Z,13.55
2022-11-05T16:42:02.290Z,13.48
2022-11-05T16:44:30.804Z,13.42
2022-11-05T16:47:00.385Z,13.37
2022-11-05T16:49:28.559Z,13.33
2022-11-05T16:51:56.956Z,13.28
2022-11-05T16:54:25.120Z,13.21
2022-11-05T16:56:53.300Z,13.15
2022-11-05T16:59:21.767Z,13.09
2022-11-05T17:01:55.481Z,13.04
2022-11-05T17:04:25.788Z,12.98
2022-11-05T17:06:53.996Z,12.91
2022-11-05T17:09:22.177Z,12.86
2022-11-05T17:11:50.672Z,12.81
2022-11-05T17:14:18.842Z,12.73
2022-11-05T17:16:47.029Z,12.67
2022-11-05T17:19:16.932Z,12.61
2022-11-05T17:21:46.763Z,12.58
2022-11-05T17:24:15.014Z,12.53
2022-11-05T17:26:43.616Z,12.45
2022-11-05T17:29:11.919Z,12.40
2022-11-05T17:31:40.857Z,12.32
2022-11-05T17:34:10.655Z,12.27
2022-11-05T17:36:38.978Z,12.18
2022-11-05T17:39:08.588Z,12.13
2022-11-05T17:41:37.199Z,12.11
2022-11-05T17:44:05.663Z,12.10
2022-11-05T17:46:34.157Z,12.05
2022-11-05T17:49:02.850Z,12.04
2022-11-05T17:51:32.786Z,12.03
2022-11-05T17:54:01.164Z,12.01
2022-11-05T17:56:34.907Z,12.03
2022-11-05T17:59:04.499Z,12.01
2022-11-05T18:01:35.808Z,12.00
2022-11-05T18:04:08.907Z,11.98
2022-11-05T18:06:37.844Z,11.97
2022-11-05T18:09:07.621Z,11.91
2022-11-05T18:11:37.954Z,11.85
2022-11-05T18:14:07.456Z,11.77
2022-11-05T18:16:36.627Z,11.76
2022-11-05T18:19:05.516Z,11.70
2022-11-05T18:21:34.249Z,11.66
2022-11-05T18:24:04.836Z,11.64
2022-11-05T18:26:33.698Z,11.64
2022-11-05T18:29:05.678Z,11.63
2022-11-05T18:31:34.077Z,11.64
2022-11-05T18:34:02.976Z,11.67
2022-11-05T18:36:33.187Z,11.69
2022-11-05T18:39:03.615Z,11.70
2022-11-05T18:41:32.710Z,11.72
2022-11-05T18:44:01.694Z,11.73
2022-11-05T18:49:21.894Z,11.74
2022-11-05T18:51:50.576Z,11.73
2022-11-05T18:54:19.035Z,11.74
2022-11-05T18:56:47.731Z,11.75
2022-11-05T19:02:09.444Z,11.70
2022-11-05T19:04:38.691Z,11.64
2022-11-05T19:07:08.919Z,11.59
2022-11-05T19:09:39.257Z,11.47
2022-11-05T19:12:09.073Z,11.39
2022-11-05T19:14:37.926Z,11.34
2022-11-05T19:17:06.155Z,11.30
2022-11-05T19:19:36.051Z,11.23
2022-11-05T19:22:05.053Z,11.19
2022-11-05T19:24:33.430Z,11.20
2022-11-05T19:27:02.017Z,11.18
2022-11-05T19:29:30.503Z,11.15
2022-11-05T19:31:58.835Z,11.13
2022-11-05T19:34:27.370Z,11.13
2022-11-05T19:36:57.124Z,11.13
2022-11-05T19:39:25.279Z,11.15
2022-11-05T19:41:56.538Z,11.15
2022-11-05T19:44:27.293Z,11.15
2022-11-05T19:46:55.795Z,11.17
2022-11-05T19:49:24.260Z,11.19
2022-11-05T19:51:52.436Z,11.19
2022-11-05T19:54:22.226Z,11.19
2022-11-05T19:56:51.126Z,11.20
2022-11-05T19:59:19.349Z,11.22
2022-11-05T20:01:48.013Z,11.23
2022-11-05T20:04:16.519Z,11.23
2022-11-05T20:06:44.991Z,11.22
2022-11-05T20:09:21.706Z,11.21
2022-11-05T20:11:54.277Z,11.23
2022-11-05T20:14:23.841Z,11.21
2022-11-05T20:16:52.939Z,11.22
2022-11-05T20:19:22.875Z,11.21
2022-11-05T20:21:51.155Z,11.20
2022-11-05T20:24:24.645Z,11.19
2022-11-05T20:26:56.828Z,11.20
2022-11-05T20:29:33.676Z,11.21
2022-11-05T20:32:03.726Z,11.18
2022-11-05T20:34:33.823Z,11.13
2022-11-05T20:37:02.346Z,11.08
2022-11-05T20:39:30.656Z,11.04
2022-11-05T20:42:01.431Z,11.01
2022-11-05T20:44:29.837Z,10.96
2022-11-05T20:46:58.104Z,10.94
2022-11-05T20:49:26.718Z,10.92
2022-11-05T20:51:55.500Z,10.90
2022-11-05T20:54:24.285Z,10.90
2022-11-05T20:56:52.684Z,10.86
2022-11-05T20:59:22.388Z,10.82
2022-11-05T21:01:51.931Z,10.82
2022-11-05T21:04:20.474Z,10.80
2022-11-05T21:06:48.624Z,10.77
2022-11-05T21:09:16.873Z,10.77
2022-11-05T21:12:02.887Z,10.78
2022-11-05T21:14:32.484Z,10.79
2022-11-05T21:17:00.981Z,10.77
2022-11-05T21:19:31.161Z,10.77
2022-11-05T21:21:59.391Z,10.76
2022-11-05T21:24:28.041Z,10.75
2022-11-05T21:26:56.515Z,10.75
2022-11-05T21:29:24.714Z,10.73
2022-11-05T21:31:54.819Z,10.72
2022-11-05T21:34:23.098Z,10.70
2022-11-05T21:36:51.583Z,10.67
2022-11-05T21:39:20.328Z,10.62
2022-11-05T21:41:48.636Z,10.56
2022-11-05T21:44:16.966Z,10.50
2022-11-05T21:46:45.515Z,10.48
2022-11-05T21:49:15.660Z,10.47
2022-11-05T21:52:01.366Z,10.45
2022-11-05T21:54:47.391Z,10.42
2022-11-05T21:57:34.549Z,10.40
2022-11-05T22:00:05.867Z,10.39
2022-11-05T22:02:34.504Z,10.38
2022-11-05T22:05:06.431Z,10.38
2022-11-05T22:07:36.760Z,10.38
2022-11-05T22:10:13.191Z,10.36
2022-11-05T22:12:44.513Z,10.35
2022-11-05T22:15:13.292Z,10.36
2022-11-05T22:17:46.533Z,10.38
2022-11-05T22:20:17.894Z,10.40
2022-11-05T22:22:46.183Z,10.43
2022-11-05T22:25:15.024Z,10.45
2022-11-05T22:27:43.942Z,10.48
2022-11-05T22:30:13.817Z,10.49
2022-11-05T22:32:42.046Z,10.51
2022-11-05T22:35:11.327Z,10.53
2022-11-05T22:37:41.093Z,10.54
2022-11-05T22:40:10.149Z,10.55
2022-11-05T22:42:38.702Z,10.54
2022-11-05T22:45:07.899Z,10.53
2022-11-05T22:47:36.231Z,10.55
2022-11-05T22:50:05.920Z,10.56
2022-11-05T22:52:34.095Z,10.56
2022-11-05T22:55:06.135Z,10.56
2022-11-05T22:57:34.658Z,10.54
2022-11-05T23:00:04.731Z,10.53
2022-11-05T23:02:33.095Z,10.55
2022-11-05T23:05:01.663Z,10.54
2022-11-05T23:07:47.341Z,10.57
2022-11-05T23:10:35.004Z,10.60
2022-11-05T23:13:04.309Z,10.64
2022-11-05T23:15:50.221Z,10.68
2022-11-05T23:18:36.087Z,10.72
2022-11-05T23:21:23.313Z,10.75
2022-11-05T23:24:06.648Z,10.79
2022-11-05T23:26:51.201Z,10.81
2022-11-05T23:29:20.370Z,10.83
2022-11-05T23:32:09.270Z,10.87
2022-11-05T23:34:38.016Z,10.89
2022-11-05T23:37:24.352Z,10.90
2022-11-05T23:39:52.649Z,10.91
2022-11-05T23:42:39.808Z,10.92
2022-11-05T23:45:26.515Z,10.91
2022-11-05T23:48:13.208Z,10.93
2022-11-05T23:50:42.469Z,10.94
2022-11-05T23:53:11.034Z,10.94
2022-11-05T23:55:40.533Z,10.93
2022-11-05T23:58:10.920Z,10.92
